Time;durP1;ratioP1;P1;durP2;ratioP2;P2;SDS_P1;SDS_P2;PMS_P1;PMS_P2;Temp;Humidity;BMP_temperature;BMP_pressure;BME280_temperature;BME280_humidity;BME280_pressure;Samples;Min_cycle;Max_cycle;Signal;HPM_P1;HPM_P2
2023/09/25 00:02:00;;;;;;;1.90;0.75;;;;;;;14.80;68.72;102153.13;5053174;27;96851;-28
2023/09/25 00:04:25;;;;;;;2.22;0.65;;;;;;;14.74;68.64;102153.50;5052884;27;97429;-28
2023/09/25 00:06:51;;;;;;;3.05;0.90;;;;;;;14.74;68.96;102157.09;5053396;27;99311;-27
2023/09/25 00:09:16;;;;;;;3.58;1.40;;;;;;;14.65;68.50;102144.88;5052988;27;96553;-27
2023/09/25 00:11:42;;;;;;;1.20;0.77;;;;;;;14.72;68.64;102164.50;5035099;27;97022;-27
2023/09/25 00:14:08;;;;;;;2.60;0.70;;;;;;;14.72;68.60;102166.34;5052647;27;98074;-27
2023/09/25 00:16:34;;;;;;;1.55;1.00;;;;;;;14.67;68.45;102158.44;5034552;27;101234;-27
2023/09/25 00:18:59;;;;;;;3.05;0.85;;;;;;;14.65;68.66;102157.63;5053002;27;96493;-27
2023/09/25 00:21:25;;;;;;;0.82;0.55;;;;;;;14.65;68.66;102161.22;5053100;27;96819;-27
2023/09/25 00:23:50;;;;;;;2.05;1.00;;;;;;;14.59;68.49;102163.47;5052895;27;98327;-27
2023/09/25 00:26:15;;;;;;;1.63;0.85;;;;;;;14.60;68.45;102165.19;5052804;27;97374;-28
2023/09/25 00:28:42;;;;;;;1.88;0.77;;;;;;;14.57;68.59;102157.22;5052726;27;96622;-27
2023/09/25 00:31:08;;;;;;;1.40;0.75;;;;;;;14.62;68.59;102160.53;5034699;27;96803;-26
2023/09/25 00:33:34;;;;;;;0.65;0.43;;;;;;;14.56;68.62;102152.72;5034281;27;101322;-27
2023/09/25 00:36:00;;;;;;;3.13;0.93;;;;;;;14.55;68.61;102154.56;5052762;27;97332;-27
2023/09/25 00:38:25;;;;;;;3.10;1.10;;;;;;;14.50;68.56;102153.03;5052357;27;96467;-27
2023/09/25 00:40:50;;;;;;;1.42;0.80;;;;;;;14.50;68.73;102148.47;5052792;27;96795;-27
2023/09/25 00:43:16;;;;;;;4.72;1.10;;;;;;;14.50;68.73;102148.47;5052713;27;97364;-27
2023/09/25 00:45:42;;;;;;;1.40;0.77;;;;;;;14.52;68.79;102156.56;5051934;27;99337;-27
2023/09/25 00:48:35;;;;;;;2.00;1.10;;;;;;;14.50;68.85;102151.19;5052422;27;96573;-27
2023/09/25 00:51:03;;;;;;;1.95;0.80;;;;;;;14.49;69.19;102151.25;5047569;27;96872;-27
2023/09/25 00:53:29;;;;;;;2.13;0.98;;;;;;;14.42;68.97;102145.31;5033975;27;101118;-28
2023/09/25 00:55:56;;;;;;;1.38;0.77;;;;;;;14.40;69.13;102148.09;5034519;27;100946;-27
2023/09/25 00:58:22;;;;;;;1.48;0.90;;;;;;;14.39;68.95;102154.50;5033817;27;96705;-27
2023/09/25 01:00:48;;;;;;;1.83;0.80;;;;;;;14.37;69.13;102137.38;5052725;27;96765;-27
2023/09/25 01:03:13;;;;;;;0.57;0.52;;;;;;;14.39;69.19;102143.59;5051806;27;97230;-27
2023/09/25 01:05:39;;;;;;;1.25;0.93;;;;;;;14.36;69.08;102140.19;5052352;27;97888;-27
2023/09/25 01:08:06;;;;;;;0.88;0.70;;;;;;;14.36;68.92;102137.47;5033982;27;96626;-27
2023/09/25 01:10:32;;;;;;;1.35;0.82;;;;;;;14.36;69.09;102146.50;5033988;27;96851;-27
2023/09/25 01:12:58;;;;;;;1.90;1.00;;;;;;;14.31;69.06;102140.44;5052168;27;98371;-27
2023/09/25 01:15:23;;;;;;;1.73;1.10;;;;;;;14.34;69.09;102136.66;5052205;27;97987;-27
2023/09/25 01:17:48;;;;;;;3.75;0.95;;;;;;;14.32;69.23;102133.16;5053244;27;96661;-26
2023/09/25 01:20:17;;;;;;;2.38;1.08;;;;;;;14.28;69.32;102139.72;5056310;27;96773;-27
2023/09/25 01:22:45;;;;;;;2.20;1.17;;;;;;;14.28;69.47;102151.53;5037273;27;101625;-27
2023/09/25 01:25:11;;;;;;;1.65;0.90;;;;;;;14.26;69.35;102141.69;5037345;27;100768;-27
2023/09/25 01:27:42;;;;;;;1.77;0.82;;;;;;;14.27;69.52;102144.31;5055182;27;96770;-26
2023/09/25 01:30:10;;;;;;;2.97;0.98;;;;;;;14.24;69.54;102134.47;5055658;27;96808;-27
2023/09/25 01:32:37;;;;;;;2.03;1.05;;;;;;;14.23;69.50;102146.34;5055489;27;97987;-27
2023/09/25 01:35:08;;;;;;;4.28;1.00;;;;;;;14.22;69.40;102155.47;5037048;27;101166;-27
2023/09/25 01:37:34;;;;;;;2.08;1.20;;;;;;;14.23;69.67;102142.75;5055496;27;96596;-27
2023/09/25 01:40:00;;;;;;;1.50;1.00;;;;;;;14.17;69.50;102132.16;5037186;27;96833;-27
2023/09/25 01:42:25;;;;;;;1.98;1.05;;;;;;;14.23;69.78;102140.88;5055484;27;97447;-26
2023/09/25 01:44:51;;;;;;;1.55;0.95;;;;;;;14.18;69.64;102137.53;5055732;27;99228;-27
2023/09/25 01:47:17;;;;;;;1.05;0.77;;;;;;;14.17;69.64;102133.03;5055248;27;96649;-27
2023/09/25 01:49:43;;;;;;;1.48;0.85;;;;;;;14.15;69.89;102125.94;5037035;27;96847;-27
2023/09/25 01:52:08;;;;;;;1.20;0.82;;;;;;;14.16;69.84;102133.16;5036420;27;101543;-26
2023/09/25 01:54:35;;;;;;;2.10;0.98;;;;;;;14.09;69.93;102131.72;5055221;27;97258;-27
2023/09/25 01:57:01;;;;;;;1.83;0.80;;;;;;;14.11;69.86;102129.78;5036728;27;96770;-28
2023/09/25 01:59:26;;;;;;;1.75;0.88;;;;;;;14.12;69.91;102137.88;5055611;27;96857;-26
2023/09/25 02:01:51;;;;;;;1.95;0.77;;;;;;;14.11;70.04;102124.31;5055144;27;97948;-28
2023/09/25 02:04:17;;;;;;;2.38;1.02;;;;;;;14.13;69.95;102128.72;5054977;27;97771;-27
2023/09/25 02:06:42;;;;;;;2.05;1.00;;;;;;;14.12;69.80;102132.44;5055283;27;96598;-27
2023/09/25 02:09:10;;;;;;;1.83;1.00;;;;;;;14.06;69.88;102126.44;5055305;27;96838;-27
2023/09/25 02:11:36;;;;;;;2.75;0.77;;;;;;;14.08;70.13;102128.09;5036638;27;100999;-27
2023/09/25 02:14:01;;;;;;;1.38;0.70;;;;;;;14.01;70.22;102119.41;5054975;27;97401;-29
2023/09/25 02:16:26;;;;;;;2.55;0.90;;;;;;;14.04;70.54;102110.19;5054624;27;96520;-27
2023/09/25 02:18:52;;;;;;;1.15;0.60;;;;;;;14.04;70.60;102115.63;5054587;27;96826;-27
2023/09/25 02:21:17;;;;;;;2.85;1.10;;;;;;;14.00;70.48;102112.19;5054574;27;99224;-27
2023/09/25 02:23:42;;;;;;;3.95;0.80;;;;;;;14.00;70.61;102108.59;5054404;27;99168;-27
2023/09/25 02:26:08;;;;;;;1.65;0.77;;;;;;;13.97;70.89;102104.19;5054891;27;96439;-27
2023/09/25 02:28:33;;;;;;;1.67;0.82;;;;;;;13.92;70.84;102091.78;5054621;27;96904;-27
2023/09/25 02:30:58;;;;;;;1.95;0.98;;;;;;;13.94;70.98;102098.94;5053837;27;97498;-27
2023/09/25 02:33:24;;;;;;;2.08;0.90;;;;;;;13.89;71.66;102087.38;5055234;27;97212;-27
2023/09/25 02:35:49;;;;;;;1.85;0.90;;;;;;;13.90;70.98;102085.56;5054414;27;96488;-27
2023/09/25 02:38:14;;;;;;;1.40;0.90;;;;;;;13.86;71.12;102084.84;5054611;27;96830;-26
2023/09/25 02:40:39;;;;;;;1.65;0.70;;;;;;;13.89;71.15;102090.09;5054005;27;97280;-26
2023/09/25 02:43:05;;;;;;;1.90;0.85;;;;;;;13.85;71.07;102082.19;5054633;27;97772;-26
2023/09/25 02:45:31;;;;;;;1.33;0.75;;;;;;;13.91;70.98;102100.94;5053949;27;96728;-27
2023/09/25 02:47:56;;;;;;;2.10;1.20;;;;;;;13.87;71.20;102093.88;5054324;27;96649;-27
2023/09/25 02:50:22;;;;;;;1.67;0.88;;;;;;;13.85;71.00;102101.25;5054547;27;98303;-26
2023/09/25 02:52:47;;;;;;;1.23;0.63;;;;;;;13.88;71.44;102099.25;5054031;27;99567;-27
2023/09/25 02:55:13;;;;;;;1.73;1.10;;;;;;;13.85;70.96;102095.81;5054229;27;96489;-26
2023/09/25 02:57:38;;;;;;;1.88;1.15;;;;;;;13.84;71.15;102086.75;5054641;27;96648;-27
2023/09/25 03:00:11;;;;;;;1.55;0.75;;;;;;;13.85;71.23;102091.25;5054323;27;97961;-27
2023/09/25 03:02:37;;;;;;;2.20;0.80;;;;;;;13.79;70.98;102084.28;5035969;27;101999;-29
2023/09/25 03:05:05;;;;;;;1.30;0.82;;;;;;;13.83;71.20;102093.19;5035103;27;97545;-26
2023/09/25 03:07:30;;;;;;;1.17;0.73;;;;;;;13.75;71.08;102074.56;5035890;27;97524;-28
2023/09/25 03:09:56;;;;;;;1.85;1.08;;;;;;;13.81;71.26;102089.66;5054547;27;97457;-27
2023/09/25 03:12:21;;;;;;;1.92;0.93;;;;;;;13.74;71.17;102080.94;5053751;27;99341;-27
2023/09/25 03:14:46;;;;;;;1.90;0.80;;;;;;;13.74;71.19;102093.69;5054302;27;96537;-27
2023/09/25 03:17:12;;;;;;;2.10;1.00;;;;;;;13.74;71.57;102093.69;5053801;27;96900;-27
2023/09/25 03:19:38;;;;;;;2.50;1.20;;;;;;;13.71;71.20;102089.28;5053941;27;97912;-26
2023/09/25 03:22:04;;;;;;;1.60;1.05;;;;;;;13.71;71.56;102094.75;5035802;27;100589;-26
2023/09/25 03:24:30;;;;;;;2.40;1.10;;;;;;;13.72;71.59;102096.50;5054070;27;96486;-26
2023/09/25 03:26:55;;;;;;;1.80;0.80;;;;;;;13.75;71.56;102103.59;5035749;27;96694;-26
2023/09/25 03:29:21;;;;;;;2.05;0.88;;;;;;;13.70;72.01;102100.25;5053523;27;97335;-26
2023/09/25 03:31:46;;;;;;;1.95;0.77;;;;;;;13.69;71.96;102090.34;5053660;27;99592;-27
2023/09/25 03:34:12;;;;;;;1.00;0.68;;;;;;;13.72;72.02;102101.94;5053533;27;96495;-27
2023/09/25 03:36:37;;;;;;;1.88;1.05;;;;;;;13.64;71.90;102087.00;5053350;27;96806;-27
2023/09/25 03:39:02;;;;;;;2.85;0.93;;;;;;;13.63;72.24;102097.00;5053403;27;99161;-26
2023/09/25 03:41:28;;;;;;;1.77;1.13;;;;;;;13.58;72.22;102086.34;5053313;27;97655;-27
2023/09/25 03:43:53;;;;;;;4.15;0.75;;;;;;;13.59;72.28;102101.72;5053407;27;96484;-27
2023/09/25 03:46:19;;;;;;;3.85;0.75;;;;;;;13.60;72.53;102106.19;5035100;27;96969;-27
2023/09/25 03:48:45;;;;;;;2.10;0.88;;;;;;;13.58;72.41;102091.78;5053599;27;97923;-27
2023/09/25 03:51:11;;;;;;;3.13;0.93;;;;;;;13.55;72.62;102094.69;5034697;27;101284;-27
2023/09/25 03:53:36;;;;;;;3.63;1.20;;;;;;;13.55;72.31;102100.13;5053098;27;96376;-26
2023/09/25 03:56:02;;;;;;;2.50;1.13;;;;;;;13.54;72.78;102105.69;5053551;27;96684;-27
2023/09/25 03:58:27;;;;;;;1.58;0.90;;;;;;;13.57;72.82;102108.22;5053084;27;99513;-27
2023/09/25 04:00:53;;;;;;;3.42;1.00;;;;;;;13.54;72.67;102101.09;5053346;27;97783;-26
2023/09/25 04:03:19;;;;;;;2.45;1.00;;;;;;;13.58;72.80;102109.97;5053170;27;96827;-27
2023/09/25 04:05:44;;;;;;;4.35;1.13;;;;;;;13.51;72.83;102106.69;5034835;27;96821;-27
2023/09/25 04:08:10;;;;;;;1.38;0.98;;;;;;;13.55;72.62;102124.63;5053283;27;97950;-26
2023/09/25 04:10:35;;;;;;;1.42;0.82;;;;;;;13.53;72.80;102107.50;5053612;27;98033;-27
2023/09/25 04:13:01;;;;;;;3.53;1.15;;;;;;;13.50;73.15;102110.41;5053180;27;96588;-27
2023/09/25 04:15:26;;;;;;;1.30;0.98;;;;;;;13.49;72.99;102116.81;5053026;27;96866;-27
2023/09/25 04:17:52;;;;;;;1.92;0.70;;;;;;;13.51;72.96;102119.44;5052554;27;97469;-27
2023/09/25 04:20:28;;;;;;;1.58;0.80;;;;;;;13.50;72.99;102126.72;5034550;27;101538;-27
2023/09/25 04:22:57;;;;;;;0.73;0.52;;;;;;;13.46;73.37;102118.81;5053347;27;96799;-27
2023/09/25 04:25:23;;;;;;;3.90;1.00;;;;;;;13.48;73.24;102127.78;5034715;27;96838;-27
2023/09/25 04:27:52;;;;;;;3.03;0.90;;;;;;;13.36;73.25;102116.56;5034392;27;101131;-28
2023/09/25 04:30:19;;;;;;;2.13;0.80;;;;;;;13.46;73.13;102121.53;5034421;27;98910;-27
2023/09/25 04:32:46;;;;;;;1.60;0.88;;;;;;;13.44;73.34;102129.75;5034586;27;96646;-27
2023/09/25 04:35:13;;;;;;;0.93;0.63;;;;;;;13.35;73.31;102122.13;5034734;27;96814;-27
2023/09/25 04:37:39;;;;;;;1.33;0.60;;;;;;;13.44;73.41;102137.06;5034304;27;101377;-27
2023/09/25 04:40:22;;;;;;;0.73;0.63;;;;;;;13.41;73.42;102127.22;5052688;27;97321;-28
2023/09/25 04:42:51;;;;;;;4.07;1.10;;;;;;;13.43;73.52;102138.91;5052134;27;96463;-27
2023/09/25 04:45:20;;;;;;;1.98;0.80;;;;;;;13.36;73.24;102130.19;5033973;27;96898;-27
2023/09/25 04:47:46;;;;;;;1.67;0.80;;;;;;;13.33;73.13;102119.47;5034139;27;100913;-27
2023/09/25 04:50:12;;;;;;;1.60;1.00;;;;;;;13.39;73.37;102131.84;5052472;27;98641;-27
2023/09/25 04:52:46;;;;;;;1.48;0.88;;;;;;;13.32;73.74;102127.69;5033502;27;97304;-27
2023/09/25 04:55:13;;;;;;;0.60;0.43;;;;;;;13.33;73.67;102129.47;5034433;27;96734;-26
2023/09/25 04:57:46;;;;;;;3.72;1.15;;;;;;;13.33;73.42;102132.19;5033965;27;101865;-27
2023/09/25 05:02:41;;;;;;;1.88;1.02;;;;;;;13.34;73.76;102139.38;5052213;27;96593;-26
2023/09/25 05:05:06;;;;;;;1.30;0.75;;;;;;;13.30;73.50;102130.50;5052280;27;96767;-27
2023/09/25 05:07:32;;;;;;;1.52;0.80;;;;;;;13.25;73.86;102132.56;5033316;27;101051;-27
2023/09/25 05:09:57;;;;;;;1.98;0.90;;;;;;;13.32;74.10;102147.66;5052495;27;97802;-27
2023/09/25 05:12:22;;;;;;;2.40;0.80;;;;;;;13.27;73.66;102146.06;5052494;27;96555;-27
2023/09/25 05:14:48;;;;;;;2.47;0.80;;;;;;;13.28;73.99;102147.88;5051984;27;96879;-27
2023/09/25 05:17:13;;;;;;;2.40;0.82;;;;;;;13.25;73.78;102143.44;5052116;27;97861;-27
2023/09/25 05:19:38;;;;;;;2.05;0.98;;;;;;;13.27;74.07;102143.34;5052532;27;97399;-28
2023/09/25 05:22:04;;;;;;;4.13;0.95;;;;;;;13.23;73.84;102139.03;5052332;27;96631;-27
2023/09/25 05:24:29;;;;;;;1.65;1.02;;;;;;;13.25;74.04;102146.19;5052346;27;96801;-27
2023/09/25 05:26:55;;;;;;;3.42;0.90;;;;;;;13.24;74.20;102144.41;5052273;27;97549;-27
2023/09/25 05:29:20;;;;;;;2.33;1.10;;;;;;;13.22;74.31;102157.19;5051828;27;97829;-27
2023/09/25 05:31:45;;;;;;;2.58;1.27;;;;;;;13.18;74.60;102144.72;5051784;27;96537;-28
2023/09/25 05:34:11;;;;;;;1.75;0.98;;;;;;;13.23;74.06;102152.63;5052293;27;96814;-27
2023/09/25 05:36:36;;;;;;;1.63;0.88;;;;;;;13.18;74.40;102148.31;5051763;27;99305;-27
2023/09/25 05:39:02;;;;;;;2.85;0.68;;;;;;;13.19;74.75;102149.19;5033537;27;98893;-29
2023/09/25 05:41:27;;;;;;;2.05;0.85;;;;;;;13.17;74.45;102148.41;5051961;27;96697;-26
2023/09/25 05:43:53;;;;;;;1.67;0.82;;;;;;;13.17;74.71;102160.16;5051765;27;96815;-27
2023/09/25 05:46:19;;;;;;;2.05;0.70;;;;;;;13.15;74.32;102151.19;5051070;27;99366;-27
2023/09/25 05:48:46;;;;;;;4.07;1.00;;;;;;;13.16;74.40;102154.81;5052138;27;98084;-27
2023/09/25 05:51:12;;;;;;;5.25;1.30;;;;;;;13.17;74.23;102162.88;5051960;27;96492;-26
2023/09/25 05:53:37;;;;;;;2.97;0.93;;;;;;;13.18;74.21;102161.06;5051734;27;96866;-27
2023/09/25 05:56:03;;;;;;;1.83;1.25;;;;;;;13.18;74.63;102155.63;5051085;27;99751;-27
2023/09/25 05:58:28;;;;;;;3.33;1.02;;;;;;;13.24;74.12;102165.28;5051160;27;98926;-27
2023/09/25 06:00:54;;;;;;;3.53;1.30;;;;;;;13.26;74.26;102169.69;5051586;27;96637;-26
2023/09/25 06:03:19;;;;;;;2.67;0.80;;;;;;;13.29;74.73;102169.56;5052271;27;96901;-26
2023/09/25 06:05:44;;;;;;;3.92;0.63;;;;;;;13.27;74.54;102173.28;5054969;27;99104;-27
2023/09/25 06:08:10;;;;;;;3.10;1.38;;;;;;;13.26;74.50;102174.25;5055227;27;97795;-27
2023/09/25 06:10:35;;;;;;;3.30;1.17;;;;;;;13.24;74.52;102168.00;5055147;27;96443;-27
2023/09/25 06:13:01;;;;;;;4.47;0.93;;;;;;;13.25;74.52;102172.47;5055265;27;96853;-27
2023/09/25 06:15:30;;;;;;;1.35;0.73;;;;;;;13.26;74.47;102180.56;5036605;27;101085;-27
2023/09/25 06:17:58;;;;;;;1.15;0.80;;;;;;;13.29;74.55;102176.84;5036300;27;101371;-26
2023/09/25 06:20:26;;;;;;;1.95;1.00;;;;;;;13.31;74.79;102181.25;5054558;27;96515;-27
2023/09/25 06:22:51;;;;;;;1.88;0.98;;;;;;;13.28;74.78;102177.81;5036623;27;97290;-27
2023/09/25 06:25:17;;;;;;;1.38;0.77;;;;;;;13.31;74.52;102185.81;5054871;27;97892;-27
2023/09/25 06:27:44;;;;;;;0.95;0.77;;;;;;;13.30;74.92;102176.78;5054623;27;99836;-26
2023/09/25 06:30:11;;;;;;;2.42;1.05;;;;;;;13.36;75.17;102176.44;5054558;27;96544;-27
2023/09/25 06:32:37;;;;;;;4.38;1.10;;;;;;;13.36;74.79;102167.41;5036346;27;96880;-27
2023/09/25 06:35:02;;;;;;;1.65;1.05;;;;;;;13.40;74.42;102174.47;5054448;27;97506;-27
2023/09/25 06:37:29;;;;;;;1.25;0.77;;;;;;;13.43;74.12;102168.84;5055110;27;97820;-27
2023/09/25 06:39:55;;;;;;;4.28;1.20;;;;;;;13.41;74.25;102168.03;5054668;27;96733;-27
2023/09/25 06:42:20;;;;;;;2.05;1.00;;;;;;;13.42;74.41;102164.38;5054923;27;96814;-26
2023/09/25 06:44:46;;;;;;;1.98;0.93;;;;;;;13.48;74.49;102174.91;5054204;27;97494;-27
2023/09/25 06:47:11;;;;;;;1.27;0.63;;;;;;;13.45;74.59;102169.66;5054247;27;97259;-27
2023/09/25 06:49:36;;;;;;;1.02;0.63;;;;;;;13.50;74.42;102173.00;5054643;27;96465;-28
2023/09/25 06:52:02;;;;;;;1.95;0.82;;;;;;;13.51;74.78;102173.88;5054328;27;96821;-26
2023/09/25 06:54:27;;;;;;;1.88;0.93;;;;;;;13.54;74.09;102184.63;5053861;27;99235;-27
2023/09/25 06:56:53;;;;;;;2.83;0.98;;;;;;;13.58;74.31;102192.53;5054296;27;97272;-27
2023/09/25 06:59:18;;;;;;;0.85;0.70;;;;;;;13.58;74.53;102186.22;5054551;27;96601;-27
2023/09/25 07:01:44;;;;;;;1.77;0.85;;;;;;;13.63;74.46;102185.97;5054872;27;96755;-27
2023/09/25 07:04:09;;;;;;;1.27;0.60;;;;;;;13.66;74.43;102188.50;5053961;27;97982;-27
2023/09/25 07:06:35;;;;;;;3.45;0.80;;;;;;;13.73;74.28;102192.66;5053972;27;99299;-26
2023/09/25 07:09:02;;;;;;;1.83;1.00;;;;;;;13.75;74.22;102196.19;5053423;27;96499;-27
2023/09/25 07:11:28;;;;;;;2.03;1.00;;;;;;;13.79;74.19;102200.53;5034629;27;97798;-27
2023/09/25 07:13:53;;;;;;;4.35;1.77;;;;;;;13.79;73.85;102195.09;5053470;27;98456;-28
2023/09/25 07:16:18;;;;;;;2.15;1.10;;;;;;;13.86;73.85;102201.97;5053419;27;97915;-27
2023/09/25 07:18:46;;;;;;;1.38;0.75;;;;;;;13.92;73.75;102200.75;5053592;27;96787;-26
2023/09/25 07:21:11;;;;;;;1.92;0.80;;;;;;;13.97;73.63;102202.28;5035613;27;96755;-26
2023/09/25 07:23:37;;;;;;;1.45;0.82;;;;;;;14.01;73.57;102201.16;5035449;27;98076;-27
2023/09/25 07:26:08;;;;;;;1.15;0.57;;;;;;;14.14;73.51;102206.81;5053676;27;99376;-27
2023/09/25 07:28:34;;;;;;;2.58;1.35;;;;;;;14.25;73.43;102200.75;5034953;27;96992;-27
2023/09/25 07:31:00;;;;;;;4.00;1.08;;;;;;;14.34;73.04;102194.78;5052531;27;96960;-27
2023/09/25 07:33:28;;;;;;;3.30;1.20;;;;;;;14.37;72.77;102186.47;5049627;27;97951;-29
2023/09/25 07:35:53;;;;;;;1.85;0.93;;;;;;;14.37;72.77;102181.00;5051126;27;97798;-27
2023/09/25 07:38:19;;;;;;;2.78;0.88;;;;;;;14.49;72.64;102183.97;5051801;27;96748;-27
2023/09/25 07:40:46;;;;;;;1.73;0.77;;;;;;;14.56;72.29;102175.41;5052795;27;96807;-26
2023/09/25 07:43:11;;;;;;;3.47;1.02;;;;;;;14.63;72.17;102175.94;5034130;27;101146;-27
2023/09/25 07:45:38;;;;;;;3.08;1.40;;;;;;;14.70;71.93;102184.66;5052193;27;97840;-27
2023/09/25 07:48:05;;;;;;;4.50;0.90;;;;;;;14.78;71.78;102180.50;5034233;27;97162;-27
2023/09/25 07:50:31;;;;;;;2.20;1.17;;;;;;;14.78;71.44;102177.78;5052919;27;96708;-30
2023/09/25 07:52:58;;;;;;;1.52;0.75;;;;;;;14.78;71.58;102180.50;5050856;27;96762;-29
2023/09/25 07:55:24;;;;;;;1.60;0.90;;;;;;;14.77;71.54;102161.50;5050599;27;99525;-27
2023/09/25 07:57:50;;;;;;;2.30;0.90;;;;;;;14.85;71.68;102161.94;5050339;27;97120;-31
2023/09/25 08:00:23;;;;;;;2.30;1.10;;;;;;;14.93;71.61;102156.03;5032396;27;97301;-27
2023/09/25 08:02:52;;;;;;;2.15;0.98;;;;;;;15.03;71.05;102154.50;5032545;27;101179;-27
2023/09/25 08:05:22;;;;;;;1.15;0.73;;;;;;;15.11;70.55;102168.59;5034398;27;100734;-27
2023/09/25 08:07:49;;;;;;;1.52;1.00;;;;;;;15.14;70.58;102160.22;5033876;27;96627;-27
2023/09/25 08:10:15;;;;;;;2.80;1.05;;;;;;;15.19;70.47;102163.53;5034887;27;96835;-27
2023/09/25 08:12:41;;;;;;;2.53;1.00;;;;;;;15.32;70.27;102171.88;5034656;27;100823;-26
2023/09/25 08:15:07;;;;;;;2.70;1.25;;;;;;;15.45;70.28;102164.69;5034951;27;101083;-27
2023/09/25 08:17:33;;;;;;;3.00;0.70;;;;;;;15.63;68.99;102167.25;5034147;27;96731;-26
2023/09/25 08:19:59;;;;;;;1.90;0.98;;;;;;;15.76;69.13;102162.84;5053033;27;96758;-27
2023/09/25 08:22:25;;;;;;;2.58;1.13;;;;;;;15.95;68.44;102176.22;5033129;27;101266;-27
2023/09/25 08:24:51;;;;;;;2.72;1.17;;;;;;;15.96;68.47;102161.56;5051450;27;97835;-28
2023/09/25 08:27:18;;;;;;;1.33;0.77;;;;;;;15.92;68.07;102171.84;5049691;27;97043;-28
2023/09/25 08:29:45;;;;;;;3.22;1.13;;;;;;;15.93;68.50;102178.19;5051243;27;96781;-28
2023/09/25 08:32:11;;;;;;;1.70;1.00;;;;;;;15.91;69.10;102167.34;5033056;27;101213;-30
2023/09/25 08:34:36;;;;;;;4.20;1.02;;;;;;;15.99;68.51;102180.50;5033588;27;100674;-27
2023/09/25 08:37:02;;;;;;;2.72;1.30;;;;;;;16.07;68.47;102182.78;5053007;27;96686;-27
2023/09/25 08:39:27;;;;;;;4.72;1.13;;;;;;;16.15;68.04;102180.41;5051507;27;96585;-30
2023/09/25 08:41:53;;;;;;;199.40;21.75;;;;;;;16.37;68.35;102189.97;5050318;27;97142;-28
2023/09/25 08:44:18;;;;;;;5.28;1.67;;;;;;;16.46;67.94;102192.13;5049796;27;97143;-30
2023/09/25 08:46:44;;;;;;;2.03;0.98;;;;;;;16.62;68.01;102202.94;5047843;27;97295;-30
2023/09/25 08:49:10;;;;;;;2.47;1.05;;;;;;;16.74;67.22;102204.88;5030643;27;97192;-27
2023/09/25 08:51:38;;;;;;;1.58;0.70;;;;;;;16.99;66.92;102209.63;5031369;27;100906;-27
2023/09/25 08:54:04;;;;;;;1.80;0.80;;;;;;;17.14;66.60;102197.66;5032562;27;100849;-27
2023/09/25 08:56:31;;;;;;;3.13;1.02;;;;;;;17.27;65.89;102203.16;5033615;27;97297;-28
2023/09/25 08:59:05;;;;;;;2.08;0.82;;;;;;;17.25;66.21;102205.13;5052143;27;96776;-27
2023/09/25 09:01:31;;;;;;;2.67;1.08;;;;;;;17.34;65.22;102193.53;5052015;27;99399;-26
2023/09/25 09:03:57;;;;;;;2.72;1.13;;;;;;;17.47;65.61;102198.16;5033080;27;99013;-28
2023/09/25 09:06:22;;;;;;;2.35;1.08;;;;;;;17.55;64.54;102195.78;5049998;27;97050;-29
2023/09/25 09:08:49;;;;;;;2.10;0.88;;;;;;;17.67;65.29;102186.72;5050014;27;97124;-27
2023/09/25 09:11:15;;;;;;;3.30;1.08;;;;;;;17.77;64.40;102201.50;5049084;27;99955;-28
2023/09/25 09:13:44;;;;;;;2.38;1.20;;;;;;;17.85;64.27;102189.16;5049688;27;99195;-27
2023/09/25 09:16:14;;;;;;;3.10;1.13;;;;;;;17.88;64.26;102194.44;5031280;27;97182;-30
2023/09/25 09:18:40;;;;;;;4.38;0.93;;;;;;;17.80;63.94;102181.22;5031535;27;97789;-28
2023/09/25 09:21:08;;;;;;;1.45;0.90;;;;;;;17.96;64.56;102190.16;5033840;27;101149;-27
2023/09/25 09:23:41;;;;;;;2.30;0.90;;;;;;;18.12;63.03;102198.16;5033797;27;101892;-29
2023/09/25 09:26:12;;;;;;;3.58;1.20;;;;;;;18.18;63.75;102202.31;5033771;27;96634;-29
2023/09/25 09:28:37;;;;;;;2.42;1.13;;;;;;;18.25;64.42;102206.38;5034266;27;96786;-26
2023/09/25 09:31:07;;;;;;;1.52;0.88;;;;;;;18.17;63.79;102189.63;5051773;27;99082;-26
2023/09/25 09:33:37;;;;;;;1.77;1.00;;;;;;;18.21;63.02;102203.00;5033483;27;100961;-26
2023/09/25 09:36:02;;;;;;;3.30;1.05;;;;;;;18.21;64.17;102199.34;5051019;27;96567;-27
2023/09/25 09:38:29;;;;;;;2.53;1.15;;;;;;;18.34;64.04;102204.84;5052187;27;96943;-27
2023/09/25 09:40:55;;;;;;;3.40;1.15;;;;;;;18.31;63.90;102189.47;5037022;27;101485;-27
2023/09/25 09:43:22;;;;;;;1.75;0.88;;;;;;;18.48;63.71;102198.34;5037039;27;101008;-27
2023/09/25 09:45:50;;;;;;;3.72;1.65;;;;;;;18.59;61.72;102203.91;5055342;27;96807;-27
2023/09/25 09:48:19;;;;;;;1.75;1.00;;;;;;;18.75;63.06;102210.00;5055265;27;96791;-27
2023/09/25 09:50:49;;;;;;;2.55;1.20;;;;;;;18.89;62.57;102203.53;5036855;27;100671;-27
2023/09/25 09:53:17;;;;;;;4.38;1.52;;;;;;;19.10;62.11;102203.78;5037210;27;100313;-27
2023/09/25 09:55:44;;;;;;;2.60;1.15;;;;;;;19.24;61.84;102195.34;5036893;27;96596;-26
2023/09/25 09:58:11;;;;;;;2.88;1.13;;;;;;;19.47;61.97;102201.84;5036859;27;96896;-27
2023/09/25 10:00:39;;;;;;;1.80;1.05;;;;;;;19.66;61.45;102193.03;5036345;27;101453;-27
2023/09/25 10:03:06;;;;;;;2.65;1.20;;;;;;;19.76;59.84;102201.47;5036837;27;99140;-26
2023/09/25 10:05:31;;;;;;;2.78;1.23;;;;;;;;;;5037006;27;96629;-27
2023/09/25 10:08:09;;;;;;;2.57;1.13;;;;;;;19.97;60.72;102197.97;5055536;27;96414;-26
2023/09/25 10:10:41;;;;;;;2.20;1.10;;;;;;;20.13;59.58;102202.13;5036652;27;101691;-27
2023/09/25 10:13:25;;;;;;;1.52;0.82;;;;;;;20.22;59.89;102206.03;5036679;27;99453;-27
2023/09/25 10:16:00;;;;;;;1.85;1.15;;;;;;;20.16;58.56;102220.25;5036759;27;96630;-28
2023/09/25 10:18:30;;;;;;;2.40;1.20;;;;;;;20.24;59.74;102216.91;5055345;27;96816;-26
2023/09/25 10:21:09;;;;;;;1.70;1.08;;;;;;;20.41;59.77;102202.66;5036128;27;101390;-27
2023/09/25 10:23:39;;;;;;;2.55;1.15;;;;;;;20.62;59.64;102207.41;5054768;27;99198;-27
2023/09/25 10:26:08;;;;;;;1.90;0.88;;;;;;;20.79;60.44;102202.25;5036010;27;97348;-27
2023/09/25 10:28:38;;;;;;;3.92;1.48;;;;;;;20.83;59.75;102204.75;5054705;27;96832;-27
2023/09/25 10:31:17;;;;;;;1.85;0.90;;;;;;;21.06;59.23;102200.94;5036239;27;100928;-31
2023/09/25 10:33:54;;;;;;;1.92;1.15;;;;;;;21.15;58.26;102213.94;5036432;27;100927;-27
2023/09/25 10:36:20;;;;;;;1.75;0.90;;;;;;;21.20;57.44;102200.63;5054656;27;96469;-26
2023/09/25 10:38:52;;;;;;;5.43;1.50;;;;;;;21.45;57.46;102198.56;5054607;27;96784;-27
2023/09/25 10:41:21;;;;;;;1.52;0.88;;;;;;;21.44;57.17;102187.69;5054543;27;98903;-28
2023/09/25 10:43:47;;;;;;;2.25;1.00;;;;;;;21.43;56.38;102192.34;5036175;27;100115;-27
2023/09/25 10:46:13;;;;;;;2.05;1.33;;;;;;;21.44;56.67;102184.94;5052492;27;96898;-30
2023/09/25 10:48:39;;;;;;;1.25;0.93;;;;;;;21.44;57.00;102201.47;5053251;27;97044;-31
2023/09/25 10:51:04;;;;;;;2.28;1.20;;;;;;;21.39;57.07;102201.81;5051606;27;96906;-27
2023/09/25 10:53:29;;;;;;;5.32;1.48;;;;;;;21.38;56.54;102205.56;5054159;27;99197;-27
2023/09/25 10:55:55;;;;;;;2.97;1.10;;;;;;;21.45;57.39;102208.72;5054644;27;96675;-27
2023/09/25 10:58:21;;;;;;;2.72;1.20;;;;;;;21.52;57.06;102213.56;5054324;27;96769;-28
2023/09/25 11:00:49;;;;;;;3.08;1.15;;;;;;;21.58;57.33;102220.44;5054015;27;99244;-27
2023/09/25 11:03:15;;;;;;;2.75;1.25;;;;;;;21.57;57.74;102203.03;5054002;27;97822;-27
2023/09/25 11:05:40;;;;;;;4.05;1.50;;;;;;;21.63;58.38;102202.47;5054646;27;96925;-27
2023/09/25 11:08:08;;;;;;;2.03;1.05;;;;;;;21.80;57.30;102219.44;5054761;27;96807;-27
2023/09/25 11:10:36;;;;;;;3.72;1.10;;;;;;;21.86;57.22;102218.94;5051640;27;98183;-27
2023/09/25 11:13:01;;;;;;;3.17;1.00;;;;;;;22.00;57.00;102213.06;5033122;27;101020;-27
2023/09/25 11:15:27;;;;;;;2.17;0.80;;;;;;;22.26;56.62;102215.41;5051552;27;96629;-27
2023/09/25 11:17:56;;;;;;;4.13;1.35;;;;;;;22.48;56.01;102214.34;5051765;27;97038;-27
2023/09/25 11:20:33;;;;;;;3.50;1.13;;;;;;;22.42;54.63;102213.00;5033088;27;100553;-27
2023/09/25 11:23:14;;;;;;;4.28;1.45;;;;;;;22.50;55.07;102219.72;5051483;27;99269;-32
2023/09/25 11:25:47;;;;;;;3.35;1.27;;;;;;;22.59;54.16;102211.47;5035229;27;96625;-28